Time;durP1;ratioP1;P1;durP2;ratioP2;P2;SDS_P1;SDS_P2;PMS_P1;PMS_P2;Temp;Humidity;BMP_temperature;BMP_pressure;BME280_temperature;BME280_humidity;BME280_pressure;Samples;Min_cycle;Max_cycle;Signal;HPM_P1;HPM_P2
2024/03/28 00:00:25;;;;;;;3.25;2.95;;;18.20;63.20;;;;;;5044618;28;20174;-81
2024/03/28 00:02:53;;;;;;;3.13;2.83;;;18.10;63.10;;;;;;5029821;28;20200;-81
2024/03/28 00:05:18;;;;;;;4.90;3.13;;;18.10;63.30;;;;;;5045207;28;20552;-81
2024/03/28 00:07:46;;;;;;;3.40;2.70;;;18.10;63.40;;;;;;5046527;28;20143;-81
2024/03/28 00:10:13;;;;;;;3.60;2.88;;;18.10;63.30;;;;;;5063016;28;20170;-81
2024/03/28 00:12:39;;;;;;;2.70;2.47;;;18.10;63.20;;;;;;5046806;28;20643;-81
2024/03/28 00:15:11;;;;;;;3.50;2.85;;;18.20;63.30;;;;;;5029514;28;20233;-81
2024/03/28 00:17:41;;;;;;;2.80;2.40;;;18.10;63.40;;;;;;5078101;28;20421;-81
2024/03/28 00:20:12;;;;;;;3.75;2.85;;;18.00;63.60;;;;;;5028668;28;20213;-81
2024/03/28 00:22:38;;;;;;;3.20;2.70;;;18.00;63.60;;;;;;5028728;28;20186;-81
2024/03/28 00:25:06;;;;;;;3.47;2.80;;;18.00;63.60;;;;;;5029411;28;20177;-81
2024/03/28 00:27:32;;;;;;;4.03;2.83;;;18.00;63.40;;;;;;5061446;28;20184;-81
2024/03/28 00:29:58;;;;;;;4.30;2.78;;;18.00;63.40;;;;;;5046051;28;20226;-81
2024/03/28 00:32:29;;;;;;;3.67;2.90;;;18.00;63.40;;;;;;5045844;28;20162;-81
2024/03/28 00:34:55;;;;;;;3.70;2.80;;;18.10;63.60;;;;;;5045152;28;20983;-81
2024/03/28 00:37:23;;;;;;;3.40;2.90;;;18.00;63.40;;;;;;5028922;28;20162;-81
2024/03/28 00:39:50;;;;;;;3.03;2.72;;;18.10;63.40;;;;;;5029156;28;20194;-81
2024/03/28 00:42:16;;;;;;;3.72;2.83;;;18.00;63.40;;;;;;5062654;28;20185;-81
2024/03/28 00:44:44;;;;;;;4.60;3.20;;;18.00;63.20;;;;;;5062518;28;20204;-81
2024/03/28 00:47:11;;;;;;;3.15;2.67;;;18.00;63.50;;;;;;5045479;28;20166;-81
2024/03/28 00:49:39;;;;;;;3.25;2.60;;;18.00;63.60;;;;;;5045253;28;20217;-81
2024/03/28 00:52:06;;;;;;;3.60;3.03;;;18.00;63.60;;;;;;5044758;28;20158;-81
2024/03/28 00:54:33;;;;;;;3.58;2.88;;;18.00;63.60;;;;;;5060372;28;20263;-81
2024/03/28 00:57:01;;;;;;;4.38;3.20;;;18.00;63.40;;;;;;5048930;28;20162;-81
2024/03/28 00:59:27;;;;;;;3.55;3.03;;;18.00;64.40;;;;;;5064937;28;20165;-81
2024/03/28 01:01:54;;;;;;;4.03;3.20;;;18.00;63.60;;;;;;5082031;28;20229;-81
2024/03/28 01:04:21;;;;;;;4.32;3.00;;;18.00;63.50;;;;;;5065555;28;20158;-81
2024/03/28 01:06:47;;;;;;;4.20;3.33;;;18.00;63.30;;;;;;5065045;28;20252;-81
2024/03/28 01:09:14;;;;;;;3.08;2.78;;;18.00;63.40;;;;;;5065084;28;20243;-81
2024/03/28 01:11:39;;;;;;;4.22;3.17;;;18.00;63.40;;;;;;5064687;28;20232;-81
2024/03/28 01:14:06;;;;;;;3.28;2.97;;;17.90;63.40;;;;;;5064596;28;20181;-81
2024/03/28 01:16:33;;;;;;;3.45;3.00;;;17.90;63.50;;;;;;5047775;28;20191;-81
2024/03/28 01:18:59;;;;;;;3.10;2.80;;;18.00;63.70;;;;;;5064247;28;20214;-81
2024/03/28 01:21:30;;;;;;;4.40;2.70;;;17.90;63.50;;;;;;5081102;28;20251;-81
2024/03/28 01:24:00;;;;;;;4.72;3.35;;;17.90;63.40;;;;;;5079931;28;20185;-81
2024/03/28 01:26:26;;;;;;;3.33;2.90;;;18.00;63.60;;;;;;5096960;28;20268;-81
2024/03/28 01:28:52;;;;;;;3.08;2.75;;;17.90;63.40;;;;;;5063165;28;20278;-81
2024/03/28 01:31:18;;;;;;;4.70;3.03;;;17.90;63.40;;;;;;5063938;28;20275;-81
2024/03/28 01:33:45;;;;;;;3.40;2.83;;;17.90;63.40;;;;;;5064421;28;20172;-81
2024/03/28 01:36:15;;;;;;;3.78;3.20;;;18.00;63.50;;;;;;5063351;28;20177;-81
2024/03/28 01:38:42;;;;;;;5.50;2.90;;;17.90;63.50;;;;;;5046680;28;20252;-80
2024/03/28 01:41:08;;;;;;;3.40;2.78;;;18.00;63.50;;;;;;5063644;28;20186;-81
2024/03/28 01:43:38;;;;;;;3.50;3.03;;;17.90;63.50;;;;;;5047910;28;20154;-80
2024/03/28 01:46:04;;;;;;;4.50;2.80;;;17.90;63.50;;;;;;5081116;28;20181;-80
2024/03/28 01:48:31;;;;;;;3.55;2.80;;;18.00;63.60;;;;;;5064451;28;20181;-81
2024/03/28 01:50:56;;;;;;;3.45;2.50;;;17.90;63.30;;;;;;5050238;28;20169;-80
2024/03/28 01:53:27;;;;;;;3.15;2.85;;;17.90;63.50;;;;;;5068424;28;20181;-81
2024/03/28 01:55:54;;;;;;;3.45;3.13;;;17.90;63.40;;;;;;5066885;28;20177;-80
2024/03/28 01:58:26;;;;;;;3.72;2.67;;;17.90;63.50;;;;;;5084652;28;20189;-81
2024/03/28 02:00:52;;;;;;;3.65;2.92;;;17.90;63.60;;;;;;5068050;28;20188;-81
2024/03/28 02:03:18;;;;;;;3.30;3.00;;;17.90;63.40;;;;;;5084670;28;20162;-83
2024/03/28 02:05:44;;;;;;;4.53;3.10;;;17.90;63.60;;;;;;5068015;28;20161;-81
2024/03/28 02:08:09;;;;;;;4.15;3.00;;;17.80;63.80;;;;;;5084406;28;20189;-81
2024/03/28 02:10:36;;;;;;;4.07;3.10;;;17.80;63.70;;;;;;5084411;28;20188;-81
2024/03/28 02:13:02;;;;;;;3.50;2.83;;;17.80;63.60;;;;;;5050334;28;20181;-81
2024/03/28 02:15:30;;;;;;;3.28;2.85;;;17.80;63.70;;;;;;5051233;28;20169;-81
2024/03/28 02:18:00;;;;;;;3.50;3.08;;;17.90;63.60;;;;;;5050349;28;20172;-81
2024/03/28 02:20:26;;;;;;;3.53;2.88;;;17.80;63.80;;;;;;5065817;28;20209;-81
2024/03/28 02:22:53;;;;;;;3.05;2.60;;;17.90;63.50;;;;;;5084033;28;20195;-80
2024/03/28 02:25:19;;;;;;;3.97;3.15;;;17.80;63.60;;;;;;5049944;28;20247;-81
2024/03/28 02:27:44;;;;;;;4.32;3.10;;;17.90;63.50;;;;;;5051029;28;20624;-81
2024/03/28 02:30:15;;;;;;;3.13;2.80;;;17.80;63.60;;;;;;5053578;28;20171;-81
2024/03/28 02:32:44;;;;;;;3.80;2.90;;;17.80;63.70;;;;;;5068721;28;20177;-81
2024/03/28 02:35:10;;;;;;;3.45;3.15;;;17.80;63.80;;;;;;5052558;28;20208;-81
2024/03/28 02:37:36;;;;;;;4.05;3.05;;;17.80;64.00;;;;;;5087203;28;20179;-81
2024/03/28 02:40:03;;;;;;;3.28;2.97;;;17.80;63.80;;;;;;5086146;28;20159;-81
2024/03/28 02:42:33;;;;;;;3.58;3.00;;;17.80;63.60;;;;;;5086965;28;20164;-81
2024/03/28 02:45:00;;;;;;;3.47;2.90;;;17.80;63.60;;;;;;5051763;28;20177;-80
2024/03/28 02:47:26;;;;;;;3.63;2.90;;;17.80;63.80;;;;;;5069487;28;20151;-80
2024/03/28 02:49:52;;;;;;;3.70;3.00;;;17.80;63.70;;;;;;5086386;28;20215;-81
2024/03/28 02:52:18;;;;;;;6.00;3.10;;;17.80;63.60;;;;;;5052951;28;20168;-81
2024/03/28 02:54:43;;;;;;;3.72;2.92;;;17.80;63.60;;;;;;5069027;28;20172;-81
2024/03/28 02:57:09;;;;;;;3.53;3.00;;;17.80;63.50;;;;;;5069430;28;20175;-81
2024/03/28 02:59:36;;;;;;;4.03;3.05;;;17.80;63.50;;;;;;5069677;28;20524;-81
2024/03/28 03:02:02;;;;;;;3.65;3.10;;;17.90;63.40;;;;;;5085719;28;20152;-81
2024/03/28 03:04:29;;;;;;;4.65;3.10;;;17.80;63.50;;;;;;5086392;28;20191;-81
2024/03/28 03:07:00;;;;;;;3.20;2.90;;;17.80;63.40;;;;;;5069055;28;20165;-81
2024/03/28 03:09:25;;;;;;;3.53;3.00;;;17.80;63.50;;;;;;5068998;28;20671;-81
2024/03/28 03:11:51;;;;;;;3.72;2.92;;;17.80;63.60;;;;;;5050669;28;20179;-82
2024/03/28 03:14:17;;;;;;;4.47;3.03;;;17.80;63.40;;;;;;5032608;28;20161;-81
2024/03/28 03:16:43;;;;;;;3.33;2.92;;;17.80;64.70;;;;;;5032950;28;20166;-81
2024/03/28 03:19:10;;;;;;;3.60;2.80;;;17.80;63.80;;;;;;5049041;28;20169;-80
2024/03/28 03:21:37;;;;;;;3.45;3.15;;;17.80;63.70;;;;;;5050129;28;20161;-81
2024/03/28 03:24:03;;;;;;;3.00;2.70;;;17.80;63.60;;;;;;5031875;28;20230;-82
2024/03/28 03:26:31;;;;;;;3.13;2.80;;;17.80;63.40;;;;;;5048855;28;20180;-81
2024/03/28 03:34:35;;;;;;;3.53;2.95;;;17.90;63.60;;;;;;5048660;28;20161;-81
2024/03/28 03:37:08;;;;;;;3.20;2.80;;;17.80;63.50;;;;;;5061181;28;20178;-81
2024/03/28 03:39:33;;;;;;;4.03;2.90;;;17.80;63.70;;;;;;5027953;28;20182;-81
2024/03/28 03:42:03;;;;;;;4.53;3.22;;;17.80;63.80;;;;;;5061763;28;20191;-81
2024/03/28 03:44:29;;;;;;;4.00;2.85;;;17.80;63.60;;;;;;5077595;28;20232;-81
2024/03/28 03:46:57;;;;;;;4.60;3.00;;;17.80;63.50;;;;;;5028636;28;20158;-81
2024/03/28 03:49:26;;;;;;;3.75;3.08;;;17.80;63.60;;;;;;5028122;28;20229;-81
2024/03/28 03:51:52;;;;;;;4.07;2.88;;;17.80;63.60;;;;;;5044267;28;20193;-81
2024/03/28 03:54:19;;;;;;;3.45;2.80;;;17.90;63.60;;;;;;5061512;28;20178;-82
2024/03/28 03:56:46;;;;;;;3.50;2.90;;;17.80;63.70;;;;;;5045792;28;20150;-81
2024/03/28 03:59:14;;;;;;;3.95;3.17;;;17.80;63.60;;;;;;5062378;28;20170;-82
2024/03/28 04:01:40;;;;;;;3.05;2.70;;;17.70;63.70;;;;;;5061446;28;20184;-81
2024/03/28 04:04:09;;;;;;;3.80;3.28;;;17.70;63.90;;;;;;5029213;28;20217;-81
2024/03/28 04:06:35;;;;;;;4.40;3.30;;;17.70;63.90;;;;;;5028776;28;20162;-81
2024/03/28 04:09:00;;;;;;;4.38;3.15;;;17.70;63.60;;;;;;5045380;28;20197;-81
2024/03/28 04:11:33;;;;;;;3.33;2.97;;;17.70;63.60;;;;;;5028958;28;20185;-81
2024/03/28 04:13:59;;;;;;;3.95;2.90;;;17.70;63.80;;;;;;5059799;28;20765;-81
2024/03/28 04:16:25;;;;;;;3.67;2.92;;;17.80;63.60;;;;;;5028763;28;20186;-82
2024/03/28 04:18:51;;;;;;;3.72;2.95;;;17.80;63.60;;;;;;5045198;28;20165;-81
2024/03/28 04:21:18;;;;;;;4.10;3.13;;;17.80;64.00;;;;;;5061507;28;20177;-81
2024/03/28 04:23:49;;;;;;;3.53;3.03;;;17.70;63.60;;;;;;5028809;28;20200;-81
2024/03/28 04:26:18;;;;;;;3.53;2.90;;;17.80;63.80;;;;;;5043734;28;20236;-82
2024/03/28 04:28:44;;;;;;;4.10;3.15;;;17.70;63.60;;;;;;5026645;28;20763;-81
2024/03/28 04:31:12;;;;;;;3.45;2.90;;;17.80;63.60;;;;;;5045031;28;20613;-82
2024/03/28 04:33:44;;;;;;;3.00;2.70;;;17.80;63.80;;;;;;5027371;28;20182;-81
2024/03/28 04:36:10;;;;;;;3.33;3.00;;;17.70;63.60;;;;;;5027164;28;20177;-81
2024/03/28 04:38:37;;;;;;;3.67;3.10;;;17.70;63.90;;;;;;5028482;28;20178;-81
2024/03/28 04:41:05;;;;;;;4.55;3.13;;;17.70;64.00;;;;;;5044285;28;20241;-82
2024/03/28 04:43:38;;;;;;;3.50;3.10;;;17.70;63.80;;;;;;5007347;28;20191;-81
2024/03/28 04:46:04;;;;;;;3.30;2.75;;;17.60;63.70;;;;;;5024442;28;20183;-82
2024/03/28 04:48:32;;;;;;;3.58;3.00;;;17.60;63.90;;;;;;5057196;28;20198;-81
2024/03/28 04:50:58;;;;;;;3.78;2.95;;;17.70;63.90;;;;;;5057664;28;20316;-82
2024/03/28 04:53:24;;;;;;;5.53;3.00;;;17.70;63.80;;;;;;5057798;28;20191;-81
2024/03/28 04:55:51;;;;;;;4.10;3.00;;;17.70;63.80;;;;;;5040644;28;20150;-82
2024/03/28 04:58:17;;;;;;;3.35;2.90;;;17.70;63.60;;;;;;5041054;28;20194;-81
2024/03/28 05:00:43;;;;;;;3.47;3.05;;;17.70;63.50;;;;;;5057935;28;20165;-82
2024/03/28 05:03:09;;;;;;;3.47;2.90;;;17.70;63.40;;;;;;5040740;28;20167;-81
2024/03/28 05:05:35;;;;;;;3.40;3.08;;;17.70;63.80;;;;;;5040676;28;20201;-81
2024/03/28 05:08:04;;;;;;;3.53;2.78;;;17.70;63.80;;;;;;5040796;28;20222;-82
2024/03/28 05:10:30;;;;;;;4.03;3.10;;;17.70;64.00;;;;;;5024140;28;20201;-81
2024/03/28 05:13:00;;;;;;;3.03;2.72;;;17.70;63.60;;;;;;5057086;28;20241;-81
2024/03/28 05:15:26;;;;;;;3.38;2.88;;;17.70;63.90;;;;;;5039737;28;20182;-82
2024/03/28 05:17:52;;;;;;;3.42;2.97;;;17.70;63.90;;;;;;5040088;28;20217;-81
2024/03/28 05:20:17;;;;;;;4.30;2.67;;;17.60;63.70;;;;;;5040499;28;20935;-81
2024/03/28 05:22:43;;;;;;;3.72;3.10;;;17.70;63.60;;;;;;5057394;28;20233;-82
2024/03/28 05:25:09;;;;;;;3.67;2.97;;;17.70;63.70;;;;;;5056744;28;20186;-81
2024/03/28 05:27:36;;;;;;;3.80;3.17;;;17.70;63.80;;;;;;5040692;28;20531;-81
2024/03/28 05:30:03;;;;;;;3.42;3.00;;;17.70;63.60;;;;;;5039868;28;20225;-82
2024/03/28 05:32:33;;;;;;;4.32;3.20;;;17.70;63.50;;;;;;5040357;28;20185;-81
2024/03/28 05:35:04;;;;;;;3.50;3.13;;;17.80;63.20;;;;;;5056208;28;20195;-81
2024/03/28 05:37:30;;;;;;;3.38;2.88;;;17.70;63.50;;;;;;5039653;28;20179;-82
2024/03/28 05:39:59;;;;;;;3.90;2.88;;;17.70;63.60;;;;;;5039770;28;20173;-81
2024/03/28 05:42:28;;;;;;;4.45;2.85;;;17.70;63.50;;;;;;5055837;28;20214;-82
2024/03/28 05:44:56;;;;;;;3.88;2.78;;;17.80;63.50;;;;;;5055616;28;20198;-82
2024/03/28 05:47:24;;;;;;;3.42;3.00;;;17.80;63.30;;;;;;5056304;28;20155;-81
2024/03/28 05:49:52;;;;;;;3.28;2.90;;;17.80;63.20;;;;;;5054551;28;20761;-81
2024/03/28 05:52:23;;;;;;;3.75;3.03;;;17.80;63.40;;;;;;5072247;28;20186;-81
2024/03/28 05:54:51;;;;;;;4.15;3.05;;;17.80;63.40;;;;;;5037849;28;20189;-82
2024/03/28 05:57:21;;;;;;;3.30;3.00;;;17.80;63.30;;;;;;5055095;28;20179;-82
2024/03/28 05:59:47;;;;;;;3.47;3.10;;;17.80;63.20;;;;;;5038677;28;20193;-81
2024/03/28 06:02:13;;;;;;;3.45;3.13;;;17.80;63.40;;;;;;5039990;28;20163;-81
2024/03/28 06:04:40;;;;;;;3.70;3.15;;;17.70;63.40;;;;;;5055474;28;20183;-81
2024/03/28 06:07:05;;;;;;;4.55;3.10;;;17.80;63.50;;;;;;5055035;28;20159;-82
2024/03/28 06:09:32;;;;;;;4.30;2.70;;;17.70;63.10;;;;;;5038761;28;20325;-81
2024/03/28 06:12:00;;;;;;;3.33;2.80;;;17.80;63.10;;;;;;5055150;28;20155;-81
2024/03/28 06:14:26;;;;;;;3.45;2.97;;;17.80;63.40;;;;;;5055260;28;20150;-81
2024/03/28 06:16:51;;;;;;;3.17;2.88;;;17.70;63.30;;;;;;5054803;28;20162;-81
2024/03/28 06:19:21;;;;;;;3.72;2.83;;;17.80;63.20;;;;;;5054783;28;20161;-81
2024/03/28 06:21:47;;;;;;;3.30;2.90;;;17.80;63.10;;;;;;5037178;28;20178;-81
2024/03/28 06:24:13;;;;;;;3.30;2.90;;;17.80;63.00;;;;;;5053019;28;20160;-81
2024/03/28 06:26:39;;;;;;;3.10;2.67;;;17.90;63.10;;;;;;5053067;28;20147;-81
2024/03/28 06:29:05;;;;;;;3.63;3.08;;;17.90;63.00;;;;;;5035668;28;20597;-81
2024/03/28 06:31:34;;;;;;;2.97;2.50;;;17.80;63.10;;;;;;5052829;28;20631;-82
2024/03/28 06:34:01;;;;;;;3.10;2.75;;;17.80;62.90;;;;;;5050386;28;20163;-82
2024/03/28 06:36:27;;;;;;;3.30;2.83;;;17.80;63.00;;;;;;5052264;28;20190;-81
2024/03/28 06:38:55;;;;;;;3.63;2.88;;;17.90;63.00;;;;;;5037589;28;20170;-81
2024/03/28 06:41:21;;;;;;;4.07;2.90;;;17.80;62.80;;;;;;5036132;28;20175;-82
2024/03/28 06:43:49;;;;;;;3.15;2.85;;;17.90;63.00;;;;;;5035672;28;20170;-81
2024/03/28 06:46:14;;;;;;;4.18;3.17;;;17.80;63.10;;;;;;5052532;28;20155;-82
2024/03/28 06:48:40;;;;;;;3.22;2.92;;;17.80;63.10;;;;;;5052150;28;20641;-81
2024/03/28 06:51:06;;;;;;;3.50;2.92;;;17.90;62.90;;;;;;5037144;28;20170;-81
2024/03/28 06:53:32;;;;;;;4.60;3.33;;;17.90;62.70;;;;;;5036541;28;20175;-82
2024/03/28 06:56:01;;;;;;;3.83;3.20;;;18.00;63.60;;;;;;5053911;28;20205;-81
2024/03/28 06:58:28;;;;;;;3.15;2.85;;;17.90;62.70;;;;;;5037553;28;20225;-81
2024/03/28 07:01:02;;;;;;;3.60;2.80;;;17.90;62.90;;;;;;5054188;28;20182;-81
2024/03/28 07:03:28;;;;;;;3.67;2.92;;;17.90;62.70;;;;;;5038075;28;20231;-81
2024/03/28 07:05:54;;;;;;;3.45;2.95;;;17.90;63.00;;;;;;5053510;28;20159;-81
2024/03/28 07:08:19;;;;;;;4.20;2.92;;;17.90;63.10;;;;;;5036741;28;20314;-81
2024/03/28 07:10:45;;;;;;;3.58;2.95;;;17.80;62.90;;;;;;5038476;28;20151;-81
2024/03/28 07:13:12;;;;;;;3.33;2.92;;;17.80;63.10;;;;;;5053886;28;20629;-81
2024/03/28 07:15:38;;;;;;;5.50;2.90;;;17.80;62.90;;;;;;5053481;28;20186;-81
2024/03/28 07:18:05;;;;;;;3.00;2.70;;;17.90;62.20;;;;;;5053679;28;20159;-81
2024/03/28 07:20:32;;;;;;;3.50;2.88;;;17.90;62.10;;;;;;5037216;28;20276;-82
2024/03/28 07:22:58;;;;;;;3.65;2.92;;;18.00;62.00;;;;;;5037027;28;20518;-82
2024/03/28 07:25:27;;;;;;;3.35;2.70;;;18.00;61.90;;;;;;5037079;28;20258;-81
2024/03/28 07:27:52;;;;;;;3.22;2.72;;;18.00;61.90;;;;;;5055798;28;20155;-81
2024/03/28 07:30:22;;;;;;;3.10;2.80;;;18.00;61.80;;;;;;5057086;28;20194;-81
2024/03/28 07:32:51;;;;;;;4.18;2.70;;;18.00;61.60;;;;;;5039939;28;20253;-80
2024/03/28 07:35:17;;;;;;;4.05;2.88;;;18.00;61.50;;;;;;5056326;28;20303;-79
2024/03/28 07:37:43;;;;;;;2.50;2.30;;;18.00;61.90;;;;;;5054765;28;20158;-80
2024/03/28 07:40:09;;;;;;;3.63;2.90;;;18.00;61.80;;;;;;5039484;28;20174;-80
2024/03/28 07:42:35;;;;;;;2.78;2.55;;;18.00;61.90;;;;;;5056972;28;20245;-81
2024/03/28 07:45:03;;;;;;;3.28;2.80;;;18.00;61.40;;;;;;5055168;28;20186;-80
2024/03/28 07:47:30;;;;;;;3.22;2.70;;;18.00;61.80;;;;;;5038190;28;20539;-81
2024/03/28 07:49:56;;;;;;;2.78;2.50;;;18.00;61.80;;;;;;5054886;28;20644;-81
2024/03/28 07:52:22;;;;;;;3.53;2.80;;;18.00;61.50;;;;;;5038780;28;20201;-81
2024/03/28 07:54:48;;;;;;;3.60;2.65;;;18.00;61.60;;;;;;5054356;28;20173;-81
2024/03/28 07:57:15;;;;;;;2.58;2.38;;;18.00;61.80;;;;;;5038130;28;20173;-81
2024/03/28 07:59:48;;;;;;;4.25;2.92;;;18.00;61.80;;;;;;5054997;28;20166;-81
2024/03/28 08:02:19;;;;;;;3.25;2.70;;;17.90;61.90;;;;;;5037330;28;20211;-81
2024/03/28 08:04:45;;;;;;;3.13;2.70;;;18.00;61.80;;;;;;5037946;28;20182;-80
2024/03/28 08:07:10;;;;;;;3.35;2.80;;;18.00;61.90;;;;;;5057009;28;20161;-81
2024/03/28 08:09:37;;;;;;;3.28;2.85;;;17.90;61.70;;;;;;5039713;28;20193;-81
2024/03/28 08:12:08;;;;;;;4.07;2.80;;;17.90;61.30;;;;;;5056580;28;20249;-81
2024/03/28 08:14:36;;;;;;;3.08;2.65;;;18.00;61.90;;;;;;5040052;28;20170;-81
2024/03/28 08:17:07;;;;;;;2.95;2.50;;;18.00;61.10;;;;;;5057027;28;20232;-82
2024/03/28 08:19:33;;;;;;;2.70;2.50;;;18.00;61.60;;;;;;5038834;28;20552;-81
2024/03/28 08:22:08;;;;;;;3.08;2.70;;;18.00;61.50;;;;;;5055757;28;20239;-81
2024/03/28 08:24:36;;;;;;;2.90;2.60;;;18.00;61.40;;;;;;5023526;28;20181;-81
2024/03/28 08:27:02;;;;;;;2.67;2.47;;;18.10;60.90;;;;;;5040184;28;20265;-82
2024/03/28 08:29:29;;;;;;;3.17;2.88;;;18.00;60.70;;;;;;5039998;28;20261;-81
2024/03/28 08:31:56;;;;;;;3.10;2.60;;;18.10;60.90;;;;;;5041477;28;20185;-81
2024/03/28 08:34:22;;;;;;;4.00;2.72;;;18.00;61.00;;;;;;5043769;28;20639;-82
2024/03/28 08:36:48;;;;;;;3.28;2.67;;;18.00;61.10;;;;;;5042842;28;20174;-81
2024/03/28 08:39:14;;;;;;;3.15;2.55;;;18.00;61.10;;;;;;5058289;28;20162;-81
2024/03/28 08:41:40;;;;;;;3.38;2.63;;;18.00;60.70;;;;;;5043411;28;20200;-81
2024/03/28 08:44:08;;;;;;;3.58;2.38;;;18.00;61.30;;;;;;5062477;28;20162;-81
2024/03/28 08:46:35;;;;;;;2.92;2.55;;;18.00;60.90;;;;;;5046214;28;20158;-82
2024/03/28 08:49:01;;;;;;;3.00;2.65;;;18.10;60.90;;;;;;5046575;28;20201;-81
2024/03/28 08:51:27;;;;;;;3.25;2.72;;;18.10;60.80;;;;;;5047258;28;20162;-82
2024/03/28 08:53:57;;;;;;;3.03;2.72;;;18.10;60.80;;;;;;5046340;28;20176;-81
2024/03/28 08:56:28;;;;;;;3.03;2.70;;;18.00;61.20;;;;;;5048221;28;20174;-83
2024/03/28 08:58:58;;;;;;;3.25;2.92;;;18.10;60.90;;;;;;5048684;28;20177;-82
2024/03/28 09:01:27;;;;;;;4.78;2.60;;;18.10;61.20;;;;;;5065179;28;20173;-82
2024/03/28 09:03:58;;;;;;;3.03;2.72;;;18.00;61.80;;;;;;5066592;28;20233;-83
2024/03/28 09:06:26;;;;;;;2.90;2.50;;;18.00;61.50;;;;;;5048582;28;20170;-82
2024/03/28 09:08:56;;;;;;;4.72;2.53;;;18.00;61.80;;;;;;5047384;28;20205;-82
2024/03/28 09:11:22;;;;;;;2.83;2.53;;;18.00;61.80;;;;;;5031327;28;20541;-81
2024/03/28 09:13:51;;;;;;;3.10;2.70;;;18.10;60.90;;;;;;5048440;28;20162;-82
2024/03/28 09:16:17;;;;;;;2.92;2.40;;;18.10;60.50;;;;;;5047101;28;20169;-81
2024/03/28 09:18:42;;;;;;;3.13;2.70;;;18.10;60.60;;;;;;5047729;28;20191;-82
2024/03/28 09:21:11;;;;;;;2.83;2.50;;;18.00;61.50;;;;;;5048177;28;20188;-81
2024/03/28 09:23:38;;;;;;;3.15;2.70;;;18.10;61.40;;;;;;5048699;28;20687;-81
2024/03/28 09:26:05;;;;;;;3.28;2.40;;;18.00;61.70;;;;;;5048531;28;20162;-81
2024/03/28 09:28:34;;;;;;;3.78;2.50;;;18.00;60.60;;;;;;5030105;28;20304;-81
2024/03/28 09:31:00;;;;;;;3.47;2.60;;;18.20;60.20;;;;;;5047984;28;20219;-82
2024/03/28 09:33:27;;;;;;;2.90;2.60;;;18.10;60.90;;;;;;5049200;28;20154;-82
2024/03/28 09:35:53;;;;;;;2.80;2.50;;;18.20;60.10;;;;;;5052726;28;20188;-82
2024/03/28 09:38:24;;;;;;;2.97;2.60;;;18.20;60.30;;;;;;5053490;28;20177;-81
2024/03/28 09:40:52;;;;;;;3.22;2.67;;;18.20;60.70;;;;;;5051906;28;20162;-82
2024/03/28 09:43:18;;;;;;;2.45;2.25;;;18.20;60.70;;;;;;5052550;28;20157;-82
2024/03/28 09:45:47;;;;;;;3.72;2.70;;;18.20;60.30;;;;;;5053096;28;20282;-82
2024/03/28 09:48:15;;;;;;;4.20;2.58;;;18.10;60.40;;;;;;5052352;28;20215;-82
2024/03/28 09:50:43;;;;;;;3.95;2.30;;;18.10;61.90;;;;;;5052894;28;20186;-82
2024/03/28 09:53:18;;;;;;;3.75;2.60;;;18.10;61.20;;;;;;5051964;28;20252;-81
2024/03/28 09:55:47;;;;;;;4.05;2.30;;;18.10;61.00;;;;;;5064427;28;20184;-81
2024/03/28 09:58:19;;;;;;;2.88;2.58;;;18.00;61.30;;;;;;5048235;28;20181;-81
2024/03/28 10:00:46;;;;;;;2.88;2.50;;;18.10;61.40;;;;;;5034591;28;20177;-82
2024/03/28 10:03:22;;;;;;;3.63;2.70;;;18.00;61.10;;;;;;5053399;28;20173;-82
2024/03/28 10:05:49;;;;;;;3.08;2.67;;;18.00;61.70;;;;;;5053847;28;20184;-82
2024/03/28 10:08:16;;;;;;;3.90;2.58;;;18.00;62.00;;;;;;5063318;28;20183;-82
2024/03/28 10:10:55;;;;;;;3.42;2.33;;;18.10;61.50;;;;;;5030919;28;20189;-82
2024/03/28 10:13:41;;;;;;;2.70;2.40;;;18.00;61.50;;;;;;4999526;28;20197;-82
2024/03/28 10:16:12;;;;;;;2.47;2.28;;;18.10;61.30;;;;;;5013917;28;20175;-82
2024/03/28 10:18:38;;;;;;;2.88;2.53;;;18.10;60.90;;;;;;4991633;28;20219;-82
2024/03/28 10:21:04;;;;;;;3.00;2.70;;;18.10;61.20;;;;;;4972027;28;20553;-82
2024/03/28 10:23:31;;;;;;;2.85;2.40;;;18.10;61.90;;;;;;4989556;28;20176;-82
2024/03/28 10:25:58;;;;;;;2.67;2.40;;;18.20;60.90;;;;;;4990733;28;20167;-82
2024/03/28 10:28:28;;;;;;;5.03;2.72;;;18.20;60.90;;;;;;4992597;28;20246;-82
2024/03/28 10:30:58;;;;;;;4.35;2.40;;;18.20;61.10;;;;;;4989751;28;20172;-84
2024/03/28 10:33:28;;;;;;;2.97;2.67;;;18.20;60.80;;;;;;5006095;28;20190;-82
2024/03/28 10:35:58;;;;;;;3.25;2.58;;;18.20;61.20;;;;;;4989529;28;21001;-82
2024/03/28 10:38:28;;;;;;;3.00;2.55;;;18.20;61.20;;;;;;5013258;28;20182;-82
2024/03/28 10:40:57;;;;;;;2.90;2.55;;;18.20;60.70;;;;;;4997335;28;20608;-82
2024/03/28 10:43:25;;;;;;;3.28;2.50;;;18.20;60.10;;;;;;5029639;28;20213;-82
2024/03/28 10:45:59;;;;;;;2.97;2.65;;;18.20;60.00;;;;;;5029575;28;20178;-82
2024/03/28 10:48:27;;;;;;;3.00;2.58;;;18.20;60.80;;;;;;5014421;28;20194;-82
2024/03/28 10:51:15;;;;;;;2.88;2.33;;;18.20;60.00;;;;;;5038636;28;20179;-82
2024/03/28 10:53:52;;;;;;;2.90;2.60;;;18.20;60.20;;;;;;5057541;28;20157;-82
2024/03/28 10:56:18;;;;;;;2.67;2.47;;;18.20;59.60;;;;;;5038132;28;20589;-82
2024/03/28 10:58:49;;;;;;;2.83;2.40;;;18.20;60.30;;;;;;5052032;28;20166;-83
2024/03/28 11:01:16;;;;;;;4.10;2.47;;;18.20;60.20;;;;;;5033380;28;20236;-82
2024/03/28 11:03:48;;;;;;;2.70;2.50;;;18.30;60.20;;;;;;5052237;28;20150;-82
2024/03/28 11:06:15;;;;;;;2.92;2.40;;;18.30;60.30;;;;;;5033677;28;20197;-82
2024/03/28 11:08:41;;;;;;;2.85;2.30;;;18.30;60.10;;;;;;5036327;28;20213;-82
2024/03/28 11:11:07;;;;;;;2.55;2.35;;;18.30;59.80;;;;;;5047367;28;20174;-81
2024/03/28 11:13:33;;;;;;;3.45;2.67;;;18.30;60.30;;;;;;5045728;28;20154;-82
2024/03/28 11:16:13;;;;;;;;;;;;;;;;;;;;;
2024/03/28 11:18:51;;;;;;;2.97;2.45;;;18.30;60.00;;;;;;5023302;28;20727;-82
2024/03/28 11:21:34;;;;;;;2.47;2.28;;;18.40;60.50;;;;;;5049130;28;20209;-82
2024/03/28 11:24:05;;;;;;;3.45;2.30;;;18.40;60.20;;;;;;5015667;28;20231;-82
2024/03/28 11:26:34;;;;;;;2.83;2.10;;;18.30;59.80;;;;;;5051702;28;20189;-82
2024/03/28 11:29:03;;;;;;;3.15;2.30;;;18.40;59.90;;;;;;5063770;28;20249;-82
2024/03/28 11:31:30;;;;;;;2.53;2.30;;;18.40;60.00;;;;;;5047969;28;20667;-82
2024/03/28 11:33:59;;;;;;;2.40;2.20;;;18.40;59.60;;;;;;5048865;28;20275;-82
2024/03/28 11:36:28;;;;;;;2.75;2.45;;;18.40;59.80;;;;;;5047133;28;20162;-82
2024/03/28 11:39:23;;;;;;;;;;;;;;;;;;;;;
2024/03/28 11:41:50;;;;;;;2.80;2.15;;;18.40;60.10;;;;;;5059117;28;20264;-81
2024/03/28 11:44:20;;;;;;;3.45;2.35;;;18.30;60.10;;;;;;5062925;28;20197;-83
2024/03/28 11:46:46;;;;;;;2.67;2.30;;;18.40;60.20;;;;;;5063990;28;20154;-82
2024/03/28 11:49:18;;;;;;;3.78;2.20;;;18.40;59.80;;;;;;5064418;28;20197;-81
2024/03/28 11:51:44;;;;;;;3.75;2.55;;;18.30;60.00;;;;;;5064432;28;20155;-81
2024/03/28 11:54:09;;;;;;;4.57;2.50;;;18.30;59.90;;;;;;5045351;28;20243;-81
2024/03/28 11:56:35;;;;;;;4.15;2.38;;;18.30;59.90;;;;;;5047866;28;20640;-81
2024/03/28 11:59:01;;;;;;;2.70;2.22;;;18.30;59.60;;;;;;5048995;28;20174;-81
2024/03/28 12:01:27;;;;;;;4.15;2.60;;;18.40;59.20;;;;;;5047810;28;20171;-81
2024/03/28 12:03:53;;;;;;;4.13;2.50;;;18.40;59.20;;;;;;5055883;28;20178;-80
2024/03/28 12:06:23;;;;;;;2.47;2.20;;;18.50;59.30;;;;;;5044703;28;20157;-81
2024/03/28 12:08:49;;;;;;;2.78;2.38;;;18.50;59.50;;;;;;5028896;28;20206;-82
2024/03/28 12:11:18;;;;;;;2.90;2.40;;;18.50;59.20;;;;;;5027349;28;20161;-81
2024/03/28 12:13:48;;;;;;;3.30;2.30;;;18.40;59.80;;;;;;5027311;28;20166;-82
2024/03/28 12:16:22;;;;;;;2.70;2.40;;;18.40;59.00;;;;;;5041508;28;20155;-81
2024/03/28 12:18:48;;;;;;;2.50;2.20;;;18.40;59.20;;;;;;5044789;28;20186;-81
2024/03/28 12:21:17;;;;;;;5.60;2.40;;;18.40;59.60;;;;;;5061520;28;20195;-81
2024/03/28 12:23:43;;;;;;;11.77;2.83;;;18.40;59.60;;;;;;5044806;28;20166;-81
2024/03/28 12:26:23;;;;;;;29.35;3.75;;;18.40;59.20;;;;;;5061524;28;20719;-81
2024/03/28 12:28:48;;;;;;;33.97;4.20;;;18.50;59.90;;;;;;5045303;28;20233;-80
2024/03/28 12:31:21;;;;;;;40.35;4.60;;;18.40;59.00;;;;;;5058139;28;20531;-80
2024/03/28 12:33:49;;;;;;;23.35;3.17;;;18.40;59.50;;;;;;5038786;28;20154;-79
2024/03/28 12:36:17;;;;;;;12.68;3.05;;;18.40;59.70;;;;;;5037529;28;20662;-79
2024/03/28 12:38:47;;;;;;;21.40;3.63;;;18.40;59.20;;;;;;5021843;28;20182;-80
2024/03/28 12:41:22;;;;;;;9.32;3.10;;;18.50;59.10;;;;;;5019896;28;20147;-79
2024/03/28 12:44:03;;;;;;;7.60;2.47;;;18.50;59.40;;;;;;5035751;28;20147;-79
2024/03/28 12:46:29;;;;;;;5.55;3.00;;;18.50;59.20;;;;;;5023699;28;20326;-80
2024/03/28 12:48:56;;;;;;;4.25;2.63;;;18.50;58.90;;;;;;5022182;28;20209;-82
2024/03/28 12:51:22;;;;;;;8.30;2.55;;;18.50;59.40;;;;;;5038078;28;20162;-79
2024/03/28 12:53:56;;;;;;;5.57;2.80;;;18.50;59.00;;;;;;5020241;28;20239;-81
2024/03/28 12:56:25;;;;;;;9.05;2.40;;;18.60;58.90;;;;;;5038805;28;20171;-80